createdAt,value
2022-08-23T00:00:20.766Z,20.31
2022-08-23T00:01:21.145Z,20.30
2022-08-23T00:02:23.619Z,20.27
2022-08-23T00:03:20.816Z,20.25
2022-08-23T00:04:20.742Z,20.22
2022-08-23T00:05:20.712Z,20.22
2022-08-23T00:06:20.701Z,20.17
2022-08-23T00:07:20.717Z,20.16
2022-08-23T00:08:20.682Z,20.15
2022-08-23T00:09:20.711Z,20.13
2022-08-23T00:10:20.656Z,20.08
2022-08-23T00:11:20.640Z,20.05
2022-08-23T00:12:20.668Z,20.02
2022-08-23T00:13:20.629Z,19.98
2022-08-23T00:14:20.642Z,19.92
2022-08-23T00:15:20.604Z,19.89
2022-08-23T00:16:20.603Z,19.85
2022-08-23T00:17:33.365Z,19.79
2022-08-23T00:18:20.579Z,19.72
2022-08-23T00:19:20.579Z,19.70
2022-08-23T00:20:20.567Z,19.65
2022-08-23T00:21:20.552Z,19.61
2022-08-23T00:22:20.531Z,19.58
2022-08-23T00:23:20.508Z,19.52
2022-08-23T00:24:20.552Z,19.46
2022-08-23T00:25:20.496Z,19.45
2022-08-23T00:26:20.518Z,19.42
2022-08-23T00:27:20.474Z,19.39
2022-08-23T00:28:20.489Z,19.39
2022-08-23T00:29:20.491Z,19.40
2022-08-23T00:30:20.449Z,19.39
2022-08-23T00:31:20.429Z,19.35
2022-08-23T00:32:20.433Z,19.35
2022-08-23T00:33:20.411Z,19.35
2022-08-23T00:34:20.417Z,19.31
2022-08-23T00:35:26.518Z,19.30
2022-08-23T00:36:20.383Z,19.30
2022-08-23T00:37:20.364Z,19.28
2022-08-23T00:38:32.611Z,19.27
2022-08-23T00:39:20.385Z,19.24
2022-08-23T00:40:20.421Z,19.23
2022-08-23T00:41:20.317Z,19.21
2022-08-23T00:42:20.314Z,19.20
2022-08-23T00:43:20.315Z,19.16
2022-08-23T00:44:20.319Z,19.12
2022-08-23T00:45:20.304Z,19.09
2022-08-23T00:46:20.271Z,19.06
2022-08-23T00:47:20.293Z,19.05
2022-08-23T00:48:20.249Z,18.99
2022-08-23T00:49:20.267Z,18.99
2022-08-23T00:50:24.228Z,18.99
2022-08-23T00:51:20.211Z,18.97
2022-08-23T00:52:20.238Z,18.96
2022-08-23T00:53:20.192Z,18.96
2022-08-23T00:54:20.208Z,18.94
2022-08-23T00:55:20.170Z,18.94
2022-08-23T00:56:20.156Z,18.94
2022-08-23T00:57:20.149Z,18.94
2022-08-23T00:58:20.174Z,18.93
2022-08-23T00:59:20.170Z,18.90
2022-08-23T01:00:20.145Z,18.89
2022-08-23T01:01:20.146Z,18.89
2022-08-23T01:02:20.105Z,18.90
2022-08-23T01:03:20.615Z,18.90
2022-08-23T01:04:20.107Z,18.90
2022-08-23T01:05:20.059Z,18.90
2022-08-23T01:06:20.073Z,18.89
2022-08-23T01:07:20.045Z,18.87
2022-08-23T01:08:20.043Z,18.86
2022-08-23T01:09:20.057Z,18.84
2022-08-23T01:10:21.072Z,18.86
2022-08-23T01:11:20.008Z,18.84
2022-08-23T01:12:32.722Z,18.84
2022-08-23T01:13:19.969Z,18.83
2022-08-23T01:14:19.999Z,18.82
2022-08-23T01:15:19.955Z,18.82
2022-08-23T01:16:19.935Z,18.79
2022-08-23T01:17:19.943Z,18.76
2022-08-23T01:18:19.911Z,18.72
2022-08-23T01:19:19.936Z,18.69
2022-08-23T01:20:19.894Z,18.68
2022-08-23T01:21:19.883Z,18.64
2022-08-23T01:22:19.869Z,18.62
2022-08-23T01:23:19.876Z,18.62
2022-08-23T01:24:59.819Z,18.60
2022-08-23T01:25:19.879Z,18.57
2022-08-23T01:26:21.839Z,18.56
2022-08-23T01:27:19.859Z,18.53
2022-08-23T01:28:19.795Z,18.50
2022-08-23T01:29:19.835Z,18.47
2022-08-23T01:30:19.795Z,18.41
2022-08-23T01:31:19.805Z,18.35
2022-08-23T01:32:19.765Z,18.32
2022-08-23T01:33:19.804Z,18.32
2022-08-23T01:34:19.755Z,18.29
2022-08-23T01:36:19.719Z,18.28
2022-08-23T01:37:19.708Z,18.28
2022-08-23T01:38:19.713Z,18.25
2022-08-23T01:39:19.711Z,18.21
2022-08-23T01:40:19.734Z,18.23
2022-08-23T01:41:19.680Z,18.21
2022-08-23T01:42:19.648Z,18.20
2022-08-23T01:43:19.649Z,18.17
2022-08-23T01:44:19.650Z,18.14
2022-08-23T01:45:19.621Z,18.11
2022-08-23T01:46:19.627Z,18.11
2022-08-23T01:47:19.627Z,18.09
2022-08-23T01:48:19.578Z,18.07
2022-08-23T01:49:19.592Z,18.04
2022-08-23T01:50:19.566Z,18.02
2022-08-23T01:51:19.571Z,18.05
2022-08-23T01:52:19.569Z,18.02
2022-08-23T01:53:19.549Z,18.01
2022-08-23T01:54:19.552Z,18.01
2022-08-23T01:55:19.517Z,18.01
2022-08-23T01:56:19.494Z,17.99
2022-08-23T01:57:19.508Z,17.99
2022-08-23T01:58:19.477Z,17.98
2022-08-23T01:59:19.504Z,17.96
2022-08-23T02:00:19.450Z,17.95
2022-08-23T02:01:19.498Z,17.92
2022-08-23T02:02:19.436Z,17.94
2022-08-23T02:03:19.428Z,17.94
2022-08-23T02:04:19.427Z,17.91
2022-08-23T02:05:19.429Z,17.91
2022-08-23T02:06:19.377Z,17.87
2022-08-23T02:07:19.404Z,17.87
2022-08-23T02:08:19.358Z,17.87
2022-08-23T02:09:19.394Z,17.86
2022-08-23T02:10:19.353Z,17.84
2022-08-23T02:11:19.349Z,17.83
2022-08-23T02:12:19.321Z,17.81
2022-08-23T02:13:19.342Z,17.79
2022-08-23T02:14:19.313Z,17.79
2022-08-23T02:15:19.283Z,17.76
2022-08-23T02:16:19.289Z,17.74
2022-08-23T02:17:19.253Z,17.73
2022-08-23T02:18:19.247Z,17.71
2022-08-23T02:19:19.267Z,17.70
2022-08-23T02:20:19.234Z,17.68
2022-08-23T02:21:19.240Z,17.66
2022-08-23T02:22:19.224Z,17.65
2022-08-23T02:23:19.188Z,17.63
2022-08-23T02:24:19.211Z,17.62
2022-08-23T02:25:19.181Z,17.60
2022-08-23T02:26:19.190Z,17.58
2022-08-23T02:27:19.170Z,17.55
2022-08-23T02:28:19.140Z,17.55
2022-08-23T02:29:19.193Z,17.54
2022-08-23T02:30:19.120Z,17.53
2022-08-23T02:31:19.105Z,17.53
2022-08-23T02:32:19.097Z,17.53
2022-08-23T02:33:19.088Z,17.51
2022-08-23T02:34:19.115Z,17.47
2022-08-23T02:35:19.053Z,17.46
2022-08-23T02:37:19.034Z,17.42
2022-08-23T02:38:19.033Z,17.42
2022-08-23T02:39:19.093Z,17.39
2022-08-23T02:40:19.087Z,17.35
2022-08-23T02:41:19.008Z,17.36
2022-08-23T02:42:18.979Z,17.35
2022-08-23T02:43:18.967Z,17.35
2022-08-23T02:44:19.002Z,17.36
2022-08-23T02:45:18.981Z,17.36
2022-08-23T02:46:18.937Z,17.35
2022-08-23T02:47:18.921Z,17.35
2022-08-23T02:48:18.904Z,17.32
2022-08-23T02:49:18.946Z,17.32
2022-08-23T02:50:18.888Z,17.30
2022-08-23T02:51:18.878Z,17.27
2022-08-23T02:52:18.868Z,17.24
2022-08-23T02:53:18.876Z,17.22
2022-08-23T02:54:18.862Z,17.24
2022-08-23T02:55:18.843Z,17.22
2022-08-23T02:56:21.457Z,17.20
2022-08-23T02:57:18.834Z,17.21
2022-08-23T02:58:18.794Z,17.21
2022-08-23T02:59:18.848Z,17.20
2022-08-23T03:00:18.766Z,17.18
2022-08-23T03:01:18.778Z,17.20
2022-08-23T03:02:18.811Z,17.20
2022-08-23T03:03:18.757Z,17.18
2022-08-23T03:04:18.771Z,17.20
2022-08-23T03:05:18.727Z,17.18
2022-08-23T03:06:25.535Z,17.18
2022-08-23T03:07:18.698Z,17.17
2022-08-23T03:08:18.678Z,17.15
2022-08-23T03:09:18.704Z,17.12
2022-08-23T03:10:18.681Z,17.12
2022-08-23T03:11:18.662Z,17.10
2022-08-23T03:12:18.639Z,17.07
2022-08-23T03:13:18.636Z,17.09
2022-08-23T03:14:18.665Z,17.07
2022-08-23T03:15:18.639Z,17.07
2022-08-23T03:16:18.599Z,17.06
2022-08-23T03:17:18.603Z,17.05
2022-08-23T03:18:18.606Z,17.03
2022-08-23T03:19:18.583Z,17.02
2022-08-23T03:20:18.554Z,17.02
2022-08-23T03:21:18.542Z,16.99
2022-08-23T03:22:18.566Z,17.00
2022-08-23T03:23:18.519Z,17.02
2022-08-23T03:24:18.540Z,16.99
2022-08-23T03:25:18.511Z,17.00
2022-08-23T03:26:18.491Z,17.00
2022-08-23T03:27:18.480Z,17.00
2022-08-23T03:28:18.490Z,16.98
2022-08-23T03:29:18.491Z,16.99
2022-08-23T03:30:19.928Z,16.98
2022-08-23T03:31:18.431Z,16.96
2022-08-23T03:32:18.453Z,16.98
2022-08-23T03:33:18.405Z,16.95
2022-08-23T03:34:18.423Z,16.98
2022-08-23T03:35:18.381Z,16.96
2022-08-23T03:36:18.396Z,16.95
2022-08-23T03:37:18.392Z,16.95
2022-08-23T03:38:18.353Z,16.92
2022-08-23T03:39:18.395Z,16.90
2022-08-23T03:40:18.435Z,16.88
2022-08-23T03:41:18.321Z,16.88
2022-08-23T03:42:18.308Z,16.87
2022-08-23T03:43:18.318Z,16.87
2022-08-23T03:44:18.330Z,16.85
2022-08-23T03:45:18.297Z,16.85
2022-08-23T03:46:18.277Z,16.84
2022-08-23T03:47:18.269Z,16.87
2022-08-23T03:48:18.269Z,16.87
2022-08-23T03:49:18.267Z,16.87
2022-08-23T03:50:18.239Z,16.85
2022-08-23T03:51:18.214Z,16.85
2022-08-23T03:52:18.204Z,16.85
2022-08-23T03:53:18.199Z,16.84
2022-08-23T03:54:18.208Z,16.82
2022-08-23T03:55:18.183Z,16.84
2022-08-23T03:56:18.180Z,16.82
2022-08-23T03:57:18.141Z,16.84
2022-08-23T03:58:18.157Z,16.82
2022-08-23T03:59:18.147Z,16.82
2022-08-23T04:00:20.180Z,16.81
2022-08-23T04:01:18.121Z,16.80
2022-08-23T04:02:18.212Z,16.78
2022-08-23T04:03:18.077Z,16.77
2022-08-23T04:04:18.101Z,16.78
2022-08-23T04:05:18.068Z,16.77
2022-08-23T04:06:18.055Z,16.78
2022-08-23T04:07:18.054Z,16.77
2022-08-23T04:08:33.387Z,16.75
2022-08-23T04:09:18.039Z,16.75
2022-08-23T04:10:17.995Z,16.75
2022-08-23T04:11:17.992Z,16.72
2022-08-23T04:12:18.027Z,16.70
2022-08-23T04:13:17.990Z,16.69
2022-08-23T04:14:17.986Z,16.69
2022-08-23T04:15:17.965Z,16.70
2022-08-23T04:16:17.941Z,16.69
2022-08-23T04:17:17.942Z,16.70
2022-08-23T04:18:17.922Z,16.70
2022-08-23T04:19:17.948Z,16.70
2022-08-23T04:20:17.922Z,16.72
2022-08-23T04:21:17.887Z,16.72
2022-08-23T04:22:17.894Z,16.72
2022-08-23T04:23:17.860Z,16.72
2022-08-23T04:24:17.899Z,16.72
2022-08-23T04:25:34.264Z,16.75
2022-08-23T04:26:17.850Z,16.77
2022-08-23T04:27:17.857Z,16.80
2022-08-23T04:28:17.809Z,16.80
2022-08-23T04:29:24.903Z,16.80
2022-08-23T04:30:17.783Z,16.78
2022-08-23T04:31:17.795Z,16.81
2022-08-23T04:32:28.333Z,16.81
2022-08-23T04:33:18.283Z,16.82
2022-08-23T04:34:17.790Z,16.84
2022-08-23T04:35:17.743Z,16.82
2022-08-23T04:36:17.718Z,16.85
2022-08-23T04:37:17.714Z,16.85
2022-08-23T04:38:24.257Z,16.85
2022-08-23T04:39:17.765Z,16.85
2022-08-23T04:40:17.726Z,16.87
2022-08-23T04:41:17.673Z,16.88
2022-08-23T04:42:17.669Z,16.90
2022-08-23T04:43:17.631Z,16.90
2022-08-23T04:44:17.669Z,16.92
2022-08-23T04:45:17.625Z,16.95
2022-08-23T04:46:17.600Z,16.95
2022-08-23T04:47:17.643Z,16.95
2022-08-23T04:48:17.601Z,16.96
2022-08-23T04:49:17.614Z,16.95
2022-08-23T04:50:17.561Z,16.96
2022-08-23T04:51:17.575Z,16.98
2022-08-23T04:52:19.626Z,16.96
2022-08-23T04:53:17.553Z,16.98
2022-08-23T04:54:19.000Z,16.99
2022-08-23T04:55:17.506Z,17.02
2022-08-23T04:56:17.499Z,17.03
2022-08-23T04:57:17.492Z,17.02
2022-08-23T04:58:17.478Z,17.02
2022-08-23T04:59:17.494Z,17.03
2022-08-23T05:00:17.449Z,17.03
2022-08-23T05:01:17.474Z,17.05
2022-08-23T05:02:17.434Z,17.05
2022-08-23T05:03:17.425Z,17.07
2022-08-23T05:04:17.431Z,17.07
2022-08-23T05:05:17.396Z,17.09
2022-08-23T05:06:17.383Z,17.09
2022-08-23T05:07:17.399Z,17.10
2022-08-23T05:08:17.369Z,17.09
2022-08-23T05:09:20.703Z,17.10
2022-08-23T05:10:17.362Z,17.10
2022-08-23T05:11:17.344Z,17.14
2022-08-23T05:12:17.327Z,17.15
2022-08-23T05:13:17.322Z,17.17
2022-08-23T05:14:17.360Z,17.18
2022-08-23T05:15:17.282Z,17.15
2022-08-23T05:16:17.276Z,17.18
2022-08-23T05:17:17.312Z,17.20
2022-08-23T05:18:17.260Z,17.21
2022-08-23T05:19:17.282Z,17.24
2022-08-23T05:20:17.239Z,17.28
2022-08-23T05:21:17.215Z,17.30
2022-08-23T05:22:17.234Z,17.33
2022-08-23T05:23:17.199Z,17.36
2022-08-23T05:24:17.206Z,17.39
2022-08-23T05:25:17.179Z,17.40
2022-08-23T05:26:17.179Z,17.47
2022-08-23T05:27:17.147Z,17.47
2022-08-23T05:28:17.146Z,17.53
2022-08-23T05:29:17.172Z,17.55
2022-08-23T05:30:17.128Z,17.58
2022-08-23T05:31:17.135Z,17.65
2022-08-23T05:32:17.095Z,17.68
2022-08-23T05:33:17.086Z,17.71
2022-08-23T05:34:17.100Z,17.74
2022-08-23T05:35:17.098Z,17.77
2022-08-23T05:36:17.080Z,17.80
2022-08-23T05:37:17.041Z,17.84
2022-08-23T05:38:20.631Z,17.86
2022-08-23T05:39:21.160Z,17.91
2022-08-23T05:40:17.093Z,17.95
2022-08-23T05:41:17.004Z,17.98
2022-08-23T05:42:17.021Z,18.02
2022-08-23T05:43:16.973Z,18.07
2022-08-23T05:44:17.038Z,18.10
2022-08-23T05:45:21.077Z,18.14
2022-08-23T05:46:19.778Z,18.19
2022-08-23T05:47:16.926Z,18.21
2022-08-23T05:48:18.377Z,18.25
2022-08-23T05:49:21.204Z,18.29
2022-08-23T05:50:16.916Z,18.35
2022-08-23T05:51:16.898Z,18.38
2022-08-23T05:52:16.887Z,18.39
2022-08-23T05:53:16.872Z,18.46
2022-08-23T05:54:16.959Z,18.51
2022-08-23T05:55:16.838Z,18.56
2022-08-23T05:56:16.832Z,18.60
2022-08-23T05:57:16.822Z,18.64
2022-08-23T05:58:16.801Z,18.69
2022-08-23T05:59:16.857Z,18.75
2022-08-23T06:00:16.807Z,18.79
2022-08-23T06:01:16.820Z,18.83
2022-08-23T06:02:16.773Z,18.89
2022-08-23T06:03:16.753Z,18.93
2022-08-23T06:04:16.782Z,18.97
2022-08-23T06:05:16.748Z,19.05
2022-08-23T06:06:16.757Z,19.09
2022-08-23T06:07:16.709Z,19.15
2022-08-23T06:08:16.705Z,19.17
2022-08-23T06:09:16.723Z,19.24
2022-08-23T06:10:16.698Z,19.27
2022-08-23T06:11:16.681Z,19.34
2022-08-23T06:12:16.680Z,19.39
2022-08-23T06:13:16.637Z,19.45
2022-08-23T06:14:16.704Z,19.46
2022-08-23T06:15:16.611Z,19.50
2022-08-23T06:16:16.603Z,19.55
2022-08-23T06:17:16.593Z,19.57
2022-08-23T06:18:16.584Z,19.65
2022-08-23T06:19:16.597Z,19.71
2022-08-23T06:20:16.603Z,19.78
2022-08-23T06:21:16.576Z,19.83
2022-08-23T06:22:16.546Z,19.87
2022-08-23T06:23:16.535Z,19.94
2022-08-23T06:24:16.553Z,20.00
2022-08-23T06:25:16.529Z,20.04
2022-08-23T06:26:16.514Z,20.07
2022-08-23T06:27:16.541Z,20.19
2022-08-23T06:28:16.486Z,20.25
2022-08-23T06:29:16.599Z,20.31
2022-08-23T06:30:16.464Z,20.40
2022-08-23T06:31:16.639Z,20.42
2022-08-23T06:32:16.558Z,20.46
2022-08-23T06:33:16.424Z,20.53
2022-08-23T06:34:16.467Z,20.57
2022-08-23T06:35:39.178Z,20.68
2022-08-23T06:36:16.393Z,20.76
2022-08-23T06:37:16.413Z,20.81
2022-08-23T06:38:16.392Z,20.82
2022-08-23T06:39:16.390Z,20.83
2022-08-23T06:40:17.889Z,20.93
2022-08-23T06:41:16.383Z,20.97
2022-08-23T06:42:50.223Z,21.00
2022-08-23T06:43:16.335Z,21.08
2022-08-23T06:44:16.331Z,21.13
2022-08-23T06:45:16.309Z,21.19
2022-08-23T06:46:16.634Z,21.26
2022-08-23T06:47:16.301Z,21.30
2022-08-23T06:48:18.816Z,21.27
2022-08-23T06:49:16.310Z,21.28
2022-08-23T06:50:16.252Z,21.37
2022-08-23T06:51:16.248Z,21.38
2022-08-23T06:52:16.219Z,21.45
2022-08-23T06:53:16.210Z,21.48
2022-08-23T06:54:16.264Z,21.52
2022-08-23T06:55:16.199Z,21.51
2022-08-23T06:56:16.243Z,21.52
2022-08-23T06:57:16.165Z,21.49
2022-08-23T06:58:16.150Z,21.53
2022-08-23T06:59:16.251Z,21.59
2022-08-23T07:00:21.513Z,21.67
2022-08-23T07:01:42.275Z,21.67
2022-08-23T07:02:16.303Z,21.75
2022-08-23T07:03:16.125Z,21.82
2022-08-23T07:04:16.167Z,21.89
2022-08-23T07:05:16.079Z,21.96
2022-08-23T07:06:16.082Z,21.94
2022-08-23T07:07:16.253Z,22.02
2022-08-23T07:08:16.117Z,22.11
2022-08-23T07:09:16.361Z,22.12
2022-08-23T07:10:16.121Z,22.21
2022-08-23T07:11:16.024Z,22.26
2022-08-23T07:12:16.148Z,22.33
2022-08-23T07:13:18.596Z,22.39
2022-08-23T07:14:16.044Z,22.48
2022-08-23T07:15:16.049Z,22.57
2022-08-23T07:16:16.178Z,22.66
2022-08-23T07:17:16.101Z,22.69
2022-08-23T07:18:15.967Z,22.72
2022-08-23T07:19:16.235Z,22.75
2022-08-23T07:20:16.794Z,22.81
2022-08-23T07:21:30.576Z,22.89
2022-08-23T07:22:16.041Z,22.94
2022-08-23T07:25:52.866Z,23.07
2022-08-23T07:26:54.701Z,23.15
2022-08-23T07:27:54.632Z,23.19
2022-08-23T07:28:53.301Z,23.23
2022-08-23T07:29:53.320Z,23.22
2022-08-23T07:30:53.264Z,23.29
2022-08-23T07:31:53.314Z,23.37
2022-08-23T07:32:53.258Z,23.45
2022-08-23T07:33:53.244Z,23.50
2022-08-23T07:34:53.242Z,23.54
2022-08-23T07:35:53.216Z,23.57
2022-08-23T07:36:53.209Z,23.47
2022-08-23T07:37:53.191Z,23.54
2022-08-23T07:38:53.206Z,23.62
2022-08-23T07:39:53.280Z,23.75
2022-08-23T07:40:54.038Z,23.75
2022-08-23T07:41:53.144Z,23.86
2022-08-23T07:42:53.762Z,23.87
2022-08-23T07:43:53.129Z,23.94
2022-08-23T07:44:53.601Z,24.00
2022-08-23T07:45:53.129Z,24.06
2022-08-23T07:46:53.131Z,24.16
2022-08-23T07:47:53.088Z,24.21
2022-08-23T07:48:54.669Z,24.23
2022-08-23T07:49:53.083Z,24.24
2022-08-23T07:50:54.662Z,24.27
2022-08-23T07:51:53.063Z,24.24
2022-08-23T07:52:53.024Z,24.11
2022-08-23T07:53:53.012Z,24.08
2022-08-23T07:54:53.085Z,24.21
2022-08-23T07:55:53.003Z,24.26
2022-08-23T07:56:52.976Z,24.33
2022-08-23T07:57:52.998Z,24.44
2022-08-23T07:58:52.955Z,24.55
2022-08-23T07:59:52.977Z,24.63
2022-08-23T08:00:52.941Z,24.71
2022-08-23T08:01:52.985Z,24.77
2022-08-23T08:02:52.958Z,24.71
2022-08-23T08:03:52.936Z,24.70
2022-08-23T08:04:52.908Z,24.59
2022-08-23T08:05:52.887Z,24.61
2022-08-23T08:07:16.877Z,24.64
2022-08-23T08:07:52.885Z,24.70
2022-08-23T08:08:52.870Z,24.79
2022-08-23T08:09:52.875Z,24.83
2022-08-23T08:10:52.824Z,24.93
2022-08-23T08:11:52.818Z,24.97
2022-08-23T08:12:52.835Z,25.02
2022-08-23T08:13:52.797Z,25.05
2022-08-23T08:14:52.807Z,25.01
2022-08-23T08:15:52.924Z,24.99
2022-08-23T08:16:52.857Z,25.02
2022-08-23T08:17:52.800Z,25.05
2022-08-23T08:18:52.781Z,25.12
2022-08-23T08:19:52.810Z,25.16
2022-08-23T08:20:52.802Z,25.14
2022-08-23T08:21:52.757Z,25.20
2022-08-23T08:22:58.836Z,25.26
2022-08-23T08:23:52.685Z,25.29
2022-08-23T08:24:52.678Z,25.38
2022-08-23T08:25:52.688Z,25.29
2022-08-23T08:26:52.732Z,25.36
2022-08-23T08:27:52.674Z,25.35
2022-08-23T08:28:52.682Z,25.42
2022-08-23T08:29:52.646Z,25.51
2022-08-23T08:30:52.695Z,25.44
2022-08-23T08:31:54.499Z,25.48
2022-08-23T08:32:52.656Z,25.54
2022-08-23T08:33:53.980Z,25.53
2022-08-23T08:34:52.582Z,25.60
2022-08-23T08:35:57.802Z,25.57
2022-08-23T08:36:52.549Z,25.49
2022-08-23T08:37:52.526Z,25.41
2022-08-23T08:38:56.728Z,25.36
2022-08-23T08:39:52.583Z,25.44
2022-08-23T08:40:52.494Z,25.57
2022-08-23T08:42:03.908Z,25.60
2022-08-23T08:42:52.493Z,25.66
2022-08-23T08:43:52.457Z,25.64
2022-08-23T08:44:52.475Z,25.56
2022-08-23T08:45:58.826Z,25.72
2022-08-23T08:46:52.569Z,25.90
2022-08-23T08:47:52.437Z,25.97
2022-08-23T08:48:52.415Z,25.86
2022-08-23T08:49:52.435Z,25.97
2022-08-23T08:50:52.403Z,26.04
2022-08-23T08:51:52.382Z,26.04
2022-08-23T08:52:52.454Z,26.11
2022-08-23T08:53:52.367Z,26.11
2022-08-23T08:54:53.287Z,26.04
2022-08-23T08:55:52.982Z,26.08
2022-08-23T08:56:52.335Z,26.20
2022-08-23T08:57:52.350Z,26.34
2022-08-23T08:58:52.307Z,26.42
2022-08-23T08:59:52.347Z,26.50
2022-08-23T09:00:56.559Z,26.54
2022-08-23T09:01:52.340Z,26.59
2022-08-23T09:02:52.343Z,26.60
2022-08-23T09:03:52.459Z,26.65
2022-08-23T09:04:52.273Z,26.57
2022-08-23T09:05:52.274Z,26.59
2022-08-23T09:06:52.217Z,26.54
2022-08-23T09:07:52.217Z,26.54
2022-08-23T09:08:52.195Z,26.47
2022-08-23T09:09:52.237Z,26.53
2022-08-23T09:10:52.181Z,26.66
2022-08-23T09:11:52.174Z,26.84
2022-08-23T09:12:52.155Z,26.98
2022-08-23T09:13:52.167Z,27.08
2022-08-23T09:14:52.169Z,27.15
2022-08-23T09:15:52.201Z,27.18
2022-08-23T09:16:52.118Z,27.20
2022-08-23T09:17:52.147Z,27.28
2022-08-23T09:18:52.117Z,27.33
2022-08-23T09:19:52.135Z,27.38
2022-08-23T09:20:52.074Z,27.25
2022-08-23T09:21:52.060Z,27.11
2022-08-23T09:22:52.147Z,27.12
2022-08-23T09:24:00.621Z,27.28
2022-08-23T09:24:52.075Z,27.40
2022-08-23T09:25:52.026Z,27.31
2022-08-23T09:26:52.029Z,27.34
2022-08-23T09:27:52.011Z,27.31
2022-08-23T09:28:51.998Z,27.21
2022-08-23T09:29:52.026Z,27.24
2022-08-23T09:30:52.866Z,27.20
2022-08-23T09:31:52.018Z,27.30
2022-08-23T09:32:51.993Z,27.46
2022-08-23T09:33:51.944Z,27.55
2022-08-23T09:34:52.030Z,27.59
2022-08-23T09:35:51.938Z,27.71
2022-08-23T09:36:52.420Z,27.74
2022-08-23T09:37:51.889Z,27.68
2022-08-23T09:38:51.917Z,27.45
2022-08-23T09:39:51.920Z,27.30
2022-08-23T09:40:51.876Z,27.38
2022-08-23T09:41:51.857Z,27.53
2022-08-23T09:42:51.853Z,27.71
2022-08-23T09:43:51.823Z,27.87
2022-08-23T09:44:51.831Z,28.02
2022-08-23T09:45:51.827Z,28.11
2022-08-23T09:46:51.797Z,28.09
2022-08-23T09:47:53.230Z,27.93
2022-08-23T09:48:51.778Z,27.76
2022-08-23T09:49:51.782Z,27.83
2022-08-23T09:50:51.786Z,27.91
2022-08-23T09:51:53.163Z,28.06
2022-08-23T09:52:51.751Z,28.02
2022-08-23T09:53:51.716Z,28.03
2022-08-23T09:54:51.737Z,28.17
2022-08-23T09:55:51.692Z,28.25
2022-08-23T09:56:51.688Z,28.21
2022-08-23T09:57:51.754Z,27.96
2022-08-23T09:58:51.670Z,28.03
2022-08-23T09:59:51.934Z,28.18
2022-08-23T10:00:51.748Z,28.33
2022-08-23T10:01:51.718Z,28.46
2022-08-23T10:02:51.698Z,28.28
2022-08-23T10:03:51.618Z,28.23
2022-08-23T10:04:51.687Z,28.32
2022-08-23T10:05:51.612Z,28.21
2022-08-23T10:06:51.579Z,28.15
2022-08-23T10:07:51.568Z,28.09
2022-08-23T10:08:51.542Z,28.14
2022-08-23T10:09:51.557Z,28.24
2022-08-23T10:10:51.545Z,28.36
2022-08-23T10:11:51.515Z,28.50
2022-08-23T10:12:51.507Z,28.72
2022-08-23T10:13:51.489Z,28.94
2022-08-23T10:14:51.512Z,29.08
2022-08-23T10:15:51.693Z,29.25
2022-08-23T10:16:51.671Z,29.39
2022-08-23T10:17:51.457Z,29.32
2022-08-23T10:18:51.457Z,28.92
2022-08-23T10:19:51.443Z,28.94
2022-08-23T10:20:51.462Z,29.15
2022-08-23T10:21:51.490Z,29.33
2022-08-23T10:22:51.422Z,29.36
2022-08-23T10:23:51.387Z,29.26
2022-08-23T10:24:51.583Z,29.14
2022-08-23T10:25:51.440Z,29.18
2022-08-23T10:26:51.345Z,29.35
2022-08-23T10:27:51.346Z,29.32
2022-08-23T10:28:51.346Z,29.32
2022-08-23T10:29:51.353Z,29.37
2022-08-23T10:30:51.381Z,29.25
2022-08-23T10:31:51.320Z,29.33
2022-08-23T10:32:51.289Z,29.44
2022-08-23T10:33:51.312Z,29.64
2022-08-23T10:34:51.302Z,29.85
2022-08-23T10:35:51.251Z,29.74
2022-08-23T10:36:51.252Z,29.81
2022-08-23T10:37:51.241Z,29.92
2022-08-23T10:38:51.247Z,29.97
2022-08-23T10:39:51.237Z,29.92
2022-08-23T10:40:51.212Z,29.99
2022-08-23T10:41:51.194Z,30.01
2022-08-23T10:42:51.181Z,29.84
2022-08-23T10:43:51.195Z,29.64
2022-08-23T10:44:51.185Z,29.70
2022-08-23T10:45:51.199Z,29.85
2022-08-23T10:46:51.212Z,29.94
2022-08-23T10:47:51.117Z,30.06
2022-08-23T10:48:51.106Z,30.22
2022-08-23T10:49:51.133Z,30.30
2022-08-23T10:50:55.656Z,30.22
2022-08-23T10:51:51.782Z,30.19
2022-08-23T10:52:51.085Z,30.11
2022-08-23T10:53:51.057Z,30.13
2022-08-23T10:54:51.056Z,30.25
2022-08-23T10:55:51.051Z,30.40
2022-08-23T10:56:51.466Z,30.44
2022-08-23T10:57:51.012Z,30.45
2022-08-23T10:58:51.016Z,30.57
2022-08-23T10:59:51.048Z,30.76
2022-08-23T11:00:50.995Z,30.82
2022-08-23T11:01:51.035Z,30.81
2022-08-23T11:02:50.982Z,30.76
2022-08-23T11:03:50.953Z,30.64
2022-08-23T11:04:50.954Z,30.51
2022-08-23T11:05:50.935Z,30.54
2022-08-23T11:06:50.907Z,30.45
2022-08-23T11:07:50.908Z,30.37
2022-08-23T11:08:50.902Z,30.40
2022-08-23T11:09:51.079Z,30.40
2022-08-23T11:10:56.161Z,30.36
2022-08-23T11:11:50.857Z,30.46
2022-08-23T11:12:50.841Z,30.48
2022-08-23T11:13:50.836Z,30.18
2022-08-23T11:14:50.851Z,30.10
2022-08-23T11:15:50.868Z,30.22
2022-08-23T11:16:50.828Z,30.25
2022-08-23T11:17:50.796Z,30.32
2022-08-23T11:18:50.784Z,30.45
2022-08-23T11:19:50.787Z,30.40
2022-08-23T11:20:50.761Z,30.45
2022-08-23T11:21:50.772Z,30.46
2022-08-23T11:22:50.735Z,30.66
2022-08-23T11:23:50.734Z,30.90
2022-08-23T11:24:50.732Z,31.15
2022-08-23T11:25:50.713Z,30.97
2022-08-23T11:26:50.703Z,31.10
2022-08-23T11:27:50.683Z,31.19
2022-08-23T11:28:50.679Z,30.91
2022-08-23T11:29:50.693Z,30.82
2022-08-23T11:30:50.686Z,30.81
2022-08-23T11:31:50.632Z,30.64
2022-08-23T11:32:50.620Z,30.45
2022-08-23T11:33:50.619Z,30.54
2022-08-23T11:34:50.630Z,30.67
2022-08-23T11:35:50.620Z,30.73
2022-08-23T11:36:50.592Z,30.78
2022-08-23T11:37:50.568Z,30.68
2022-08-23T11:38:50.562Z,30.73
2022-08-23T11:39:50.646Z,30.63
2022-08-23T11:40:50.541Z,30.56
2022-08-23T11:41:50.555Z,30.75
2022-08-23T11:42:50.520Z,30.97
2022-08-23T11:43:50.514Z,30.85
2022-08-23T11:44:50.520Z,30.90
2022-08-23T11:45:50.522Z,31.07
2022-08-23T11:46:50.477Z,31.15
2022-08-23T11:47:50.475Z,31.19
2022-08-23T11:48:50.466Z,30.94
2022-08-23T11:49:50.463Z,31.00
2022-08-23T11:50:55.699Z,31.00
2022-08-23T11:51:50.434Z,30.91
2022-08-23T11:52:50.450Z,31.04
2022-08-23T11:53:50.405Z,31.16
2022-08-23T11:54:50.408Z,31.31
2022-08-23T11:55:50.380Z,31.42
2022-08-23T11:56:50.381Z,31.57
2022-08-23T11:57:50.356Z,31.65
2022-08-23T11:58:50.359Z,31.47
2022-08-23T11:59:50.366Z,31.47
2022-08-23T12:00:50.326Z,31.56
2022-08-23T12:01:50.327Z,31.40
2022-08-23T12:02:50.477Z,31.32
2022-08-23T12:03:50.452Z,31.32
2022-08-23T12:04:50.316Z,31.10
2022-08-23T12:05:50.513Z,31.18
2022-08-23T12:06:51.261Z,31.25
2022-08-23T12:07:50.251Z,31.23
2022-08-23T12:08:50.240Z,31.35
2022-08-23T12:09:50.248Z,31.10
2022-08-23T12:10:50.219Z,31.00
2022-08-23T12:11:50.215Z,31.12
2022-08-23T12:12:50.213Z,31.32
2022-08-23T12:13:50.200Z,31.47
2022-08-23T12:14:50.190Z,31.30
2022-08-23T12:15:50.202Z,31.09
2022-08-23T12:16:50.286Z,31.07
2022-08-23T12:17:50.166Z,31.12
2022-08-23T12:18:50.145Z,31.19
2022-08-23T12:19:50.145Z,31.34
2022-08-23T12:20:50.124Z,31.20
2022-08-23T12:21:50.103Z,31.27
2022-08-23T12:22:50.093Z,31.35
2022-08-23T12:23:50.099Z,31.18
2022-08-23T12:24:52.597Z,31.05
2022-08-23T12:25:50.094Z,31.12
2022-08-23T12:26:50.044Z,31.22
2022-08-23T12:27:50.036Z,31.28
2022-08-23T12:28:50.029Z,31.09
2022-08-23T12:29:50.044Z,31.07
2022-08-23T12:30:50.064Z,31.13
2022-08-23T12:31:50.091Z,31.23
2022-08-23T12:32:49.986Z,31.27
2022-08-23T12:33:49.980Z,31.15
2022-08-23T12:34:49.998Z,31.09
2022-08-23T12:35:49.964Z,31.18
2022-08-23T12:36:50.137Z,31.19
2022-08-23T12:37:49.942Z,31.28
2022-08-23T12:38:49.917Z,31.16
2022-08-23T12:39:49.974Z,31.31
2022-08-23T12:40:49.904Z,31.50
2022-08-23T12:41:49.890Z,31.53
2022-08-23T12:42:49.878Z,31.57
2022-08-23T12:43:49.908Z,31.85
2022-08-23T12:44:49.871Z,32.07
2022-08-23T12:45:49.971Z,32.35
2022-08-23T12:46:49.946Z,32.41
2022-08-23T12:47:49.825Z,32.32
2022-08-23T12:48:49.809Z,32.50
2022-08-23T12:49:49.839Z,32.73
2022-08-23T12:50:49.797Z,32.72
2022-08-23T12:51:49.779Z,32.44
2022-08-23T12:52:49.799Z,32.17
2022-08-23T12:53:49.776Z,32.28
2022-08-23T12:54:49.777Z,32.47
2022-08-23T12:55:49.768Z,32.56
2022-08-23T12:56:49.743Z,32.66